Time;durP1;ratioP1;P1;durP2;ratioP2;P2;SDS_P1;SDS_P2;PMS_P1;PMS_P2;Temp;Humidity;BMP_temperature;BMP_pressure;BME280_temperature;BME280_humidity;BME280_pressure;Samples;Min_cycle;Max_cycle;Signal;HPM_P1;HPM_P2
2023/05/25 00:01:43;;;;;;;0.40;0.40;;;9.10;99.90;;;;;;5047126;28;20510;-75
2023/05/25 00:04:15;;;;;;;0.60;0.60;;;9.10;1.00;;;;;;5045422;28;20429;-75
2023/05/25 00:06:46;;;;;;;0.30;0.30;;;9.00;99.90;;;;;;5045785;28;20441;-75
2023/05/25 00:09:13;;;;;;;0.40;0.40;;;9.10;1.00;;;;;;5046907;28;20524;-75
2023/05/25 00:11:40;;;;;;;0.40;0.40;;;9.10;1.00;;;;;;5055435;28;20954;-76
2023/05/25 00:14:09;;;;;;;5.90;0.30;;;9.00;99.30;;;;;;5082207;28;20431;-76
2023/05/25 00:16:36;;;;;;;0.30;0.30;;;9.00;19.60;;;;;;5082408;28;20484;-76
2023/05/25 00:19:09;;;;;;;0.30;0.30;;;9.00;99.90;;;;;;5064592;28;20428;-76
2023/05/25 00:21:39;;;;;;;0.50;0.50;;;8.90;1.00;;;;;;5066795;28;20432;-75
2023/05/25 00:24:06;;;;;;;0.60;0.60;;;8.80;2.70;;;;;;5066522;28;20431;-75
2023/05/25 00:26:36;;;;;;;0.30;0.30;;;8.80;99.90;;;;;;5060023;28;20434;-75
2023/05/25 00:29:03;;;;;;;0.40;0.40;;;8.80;99.90;;;;;;5046785;28;20522;-75
2023/05/25 00:31:32;;;;;;;0.40;0.40;;;8.80;1.00;;;;;;5046176;28;20437;-76
2023/05/25 00:33:59;;;;;;;0.60;0.60;;;8.80;1.00;;;;;;5058969;28;20886;-76
2023/05/25 00:36:26;;;;;;;0.90;0.80;;;8.80;1.00;;;;;;5067921;28;20449;-74
2023/05/25 00:38:53;;;;;;;4.33;0.73;;;8.80;80.50;;;;;;5082872;28;20556;-75
2023/05/25 00:41:21;;;;;;;1.70;0.80;;;8.80;99.90;;;;;;5059267;28;20485;-76
2023/05/25 00:43:48;;;;;;;0.20;0.20;;;8.90;99.90;;;;;;5069699;28;20439;-76
2023/05/25 00:46:15;;;;;;;0.22;0.22;;;8.90;99.90;;;;;;5065874;28;20485;-75
2023/05/25 00:48:42;;;;;;;0.60;0.60;;;8.90;99.90;;;;;;5060346;28;20432;-75
2023/05/25 00:51:12;;;;;;;3.20;0.70;;;8.80;99.90;;;;;;5065829;28;20485;-75
2023/05/25 00:53:39;;;;;;;0.30;0.30;;;8.90;1.00;;;;;;5049025;28;20425;-76
2023/05/25 00:56:29;;;;;;;4.10;1.03;;;8.90;1.00;;;;;;5062058;28;20463;-76
2023/05/25 00:58:59;;;;;;;0.55;0.47;;;8.80;1.00;;;;;;5069843;28;20459;-80
2023/05/25 01:01:27;;;;;;;0.57;0.50;;;8.90;1.00;;;;;;5070938;28;20504;-79
2023/05/25 01:03:56;;;;;;;1.23;1.17;;;8.80;1.00;;;;;;5066122;28;20432;-80
2023/05/25 01:06:25;;;;;;;0.28;0.28;;;8.80;1.00;;;;;;5049520;28;20476;-80
2023/05/25 01:08:59;;;;;;;1.58;0.75;;;8.80;1.00;;;;;;5068904;28;20431;-81
2023/05/25 01:11:34;;;;;;;0.70;0.70;;;8.80;1.00;;;;;;5070254;28;20432;-80
2023/05/25 01:14:01;;;;;;;2.00;1.10;;;8.70;12.50;;;;;;5063856;28;20435;-80
2023/05/25 01:16:28;;;;;;;3.70;0.80;;;8.60;99.90;;;;;;5070628;28;20454;-81
2023/05/25 01:18:55;;;;;;;0.40;0.40;;;8.60;99.90;;;;;;5086118;28;20477;-79
2023/05/25 01:21:40;;;;;;;2.15;0.95;;;8.60;99.90;;;;;;5070903;28;20495;-79
2023/05/25 01:24:29;;;;;;;0.65;0.65;;;8.60;99.90;;;;;;5083810;28;20454;-79
2023/05/25 01:27:06;;;;;;;0.40;0.40;;;8.60;99.90;;;;;;5070402;28;20420;-80
2023/05/25 01:29:33;;;;;;;1.10;0.77;;;8.50;99.90;;;;;;5086139;28;20466;-81
2023/05/25 01:32:03;;;;;;;1.60;0.77;;;8.50;99.90;;;;;;5086080;28;20435;-79
2023/05/25 01:34:30;;;;;;;0.73;0.68;;;8.50;99.90;;;;;;5064820;28;20841;-80
2023/05/25 01:36:58;;;;;;;0.40;0.40;;;8.50;99.90;;;;;;5050947;28;20854;-79
2023/05/25 01:39:27;;;;;;;0.70;0.70;;;8.50;99.90;;;;;;5050123;28;20896;-79
2023/05/25 01:41:54;;;;;;;0.90;0.70;;;8.50;99.90;;;;;;5059261;28;20526;-80
2023/05/25 01:44:22;;;;;;;1.00;0.90;;;8.50;99.90;;;;;;5085209;28;20434;-80
2023/05/25 01:46:56;;;;;;;0.70;0.70;;;8.50;99.90;;;;;;5082287;28;20423;-80
2023/05/25 01:49:31;;;;;;;0.98;0.55;;;8.50;99.90;;;;;;5085857;28;20427;-80
2023/05/25 01:52:14;;;;;;;1.50;0.85;;;8.40;99.90;;;;;;5070295;28;20517;-80
2023/05/25 01:54:52;;;;;;;0.40;0.40;;;8.40;99.90;;;;;;5081839;28;20461;-81
2023/05/25 01:57:20;;;;;;;5.70;0.90;;;8.30;99.90;;;;;;5049991;28;20437;-80
2023/05/25 01:59:51;;;;;;;1.77;0.80;;;8.40;1.00;;;;;;5048470;28;20432;-80
2023/05/25 02:02:19;;;;;;;0.50;0.30;;;8.30;1.00;;;;;;5048982;28;20465;-80
2023/05/25 02:04:46;;;;;;;1.67;1.10;;;8.20;1.00;;;;;;5049643;28;20437;-80
2023/05/25 02:07:13;;;;;;;1.55;1.10;;;8.20;1.00;;;;;;5049895;28;20469;-80
2023/05/25 02:09:40;;;;;;;1.10;0.90;;;8.20;1.00;;;;;;5050310;28;20460;-80
2023/05/25 02:12:07;;;;;;;0.47;0.47;;;8.20;1.00;;;;;;5055839;28;20431;-79
2023/05/25 02:14:33;;;;;;;0.60;0.60;;;8.20;1.00;;;;;;5068654;28;20523;-79
2023/05/25 02:17:00;;;;;;;0.63;0.63;;;8.10;1.00;;;;;;5070334;28;20428;-80
2023/05/25 02:19:28;;;;;;;3.40;1.00;;;8.20;1.00;;;;;;5064804;28;20516;-80
2023/05/25 02:21:55;;;;;;;1.80;0.50;;;8.10;1.00;;;;;;5048861;28;20495;-80
2023/05/25 02:24:23;;;;;;;0.80;0.80;;;8.00;1.00;;;;;;5050031;28;20429;-80
2023/05/25 02:26:50;;;;;;;2.15;0.98;;;8.00;1.00;;;;;;5049298;28;20432;-80
2023/05/25 02:29:20;;;;;;;0.70;0.57;;;7.90;1.00;;;;;;5068631;28;20437;-81
2023/05/25 02:31:46;;;;;;;1.35;0.55;;;7.80;1.00;;;;;;5051510;28;20434;-81
2023/05/25 02:34:14;;;;;;;1.60;0.77;;;7.90;1.00;;;;;;5064959;28;20436;-81
2023/05/25 02:36:42;;;;;;;0.88;0.88;;;7.90;1.00;;;;;;5065285;28;20911;-81
2023/05/25 02:39:11;;;;;;;5.70;1.27;;;7.90;1.00;;;;;;5050056;28;20429;-80
2023/05/25 02:41:38;;;;;;;1.30;1.20;;;7.90;1.00;;;;;;5065155;28;20435;-81
2023/05/25 02:44:05;;;;;;;1.00;0.50;;;7.90;1.00;;;;;;5066429;28;20432;-80
2023/05/25 02:46:32;;;;;;;1.20;0.90;;;7.90;1.00;;;;;;5085509;28;20990;-79
2023/05/25 02:48:59;;;;;;;0.75;0.65;;;7.80;1.00;;;;;;5069446;28;20489;-80
2023/05/25 02:51:27;;;;;;;0.70;0.70;;;7.70;1.00;;;;;;5068725;28;20510;-81
2023/05/25 02:53:53;;;;;;;1.90;1.13;;;7.70;1.00;;;;;;5068019;28;20436;-80
2023/05/25 02:56:21;;;;;;;0.47;0.47;;;7.60;1.00;;;;;;5067579;28;20522;-80
2023/05/25 02:58:49;;;;;;;0.50;0.50;;;7.70;1.00;;;;;;5064874;28;20431;-81
2023/05/25 03:01:17;;;;;;;1.45;1.35;;;7.60;1.00;;;;;;5048074;28;20991;-80
2023/05/25 03:03:45;;;;;;;0.40;0.40;;;7.70;1.00;;;;;;5047267;28;20487;-81
2023/05/25 03:06:13;;;;;;;0.40;0.40;;;7.60;1.00;;;;;;5062450;28;20423;-80
2023/05/25 03:08:40;;;;;;;0.98;0.98;;;7.60;1.00;;;;;;5067796;28;20902;-80
2023/05/25 03:11:09;;;;;;;3.50;1.10;;;7.50;1.00;;;;;;5064561;28;20432;-79
2023/05/25 03:13:36;;;;;;;1.23;0.90;;;7.40;1.00;;;;;;5059222;28;20949;-80
2023/05/25 03:16:03;;;;;;;0.65;0.65;;;7.40;1.00;;;;;;5063057;28;20428;-80
2023/05/25 03:18:29;;;;;;;1.20;1.05;;;7.40;1.00;;;;;;5076517;28;20506;-79
2023/05/25 03:20:56;;;;;;;0.80;0.80;;;7.40;1.00;;;;;;5063629;28;20429;-79
2023/05/25 03:23:23;;;;;;;0.90;0.90;;;7.30;1.00;;;;;;5048948;28;20524;-80
2023/05/25 03:25:50;;;;;;;0.40;0.40;;;7.40;14.50;;;;;;5050761;28;20436;-80
2023/05/25 03:28:17;;;;;;;5.53;0.77;;;7.40;28.00;;;;;;5059697;28;20497;-80
2023/05/25 03:30:46;;;;;;;2.63;0.57;;;7.40;38.00;;;;;;5091000;28;20452;-79
2023/05/25 03:33:13;;;;;;;0.65;0.65;;;7.50;46.50;;;;;;5065038;28;20517;-80
2023/05/25 03:35:42;;;;;;;0.40;0.40;;;7.50;47.20;;;;;;5062293;28;20493;-80
2023/05/25 03:38:09;;;;;;;3.10;0.90;;;7.50;49.00;;;;;;5076674;28;20523;-80
2023/05/25 03:40:36;;;;;;;1.60;0.70;;;7.50;42.00;;;;;;5079708;28;20697;-80
2023/05/25 03:43:06;;;;;;;4.35;0.60;;;7.40;35.70;;;;;;5076871;28;20441;-80
2023/05/25 03:45:32;;;;;;;0.25;0.25;;;7.40;42.30;;;;;;5086814;28;20955;-80
2023/05/25 03:48:02;;;;;;;0.50;0.50;;;7.40;39.80;;;;;;5063175;28;20540;-80
2023/05/25 03:50:29;;;;;;;2.88;1.90;;;7.40;44.50;;;;;;5053093;28;20471;-80
2023/05/25 03:52:56;;;;;;;0.60;0.60;;;7.40;53.30;;;;;;5076414;28;20441;-80
2023/05/25 03:55:22;;;;;;;2.10;1.30;;;7.40;60.50;;;;;;5068478;28;20423;-80
2023/05/25 03:57:49;;;;;;;1.87;1.63;;;7.30;66.20;;;;;;5075631;28;20626;-80
2023/05/25 04:00:16;;;;;;;0.63;0.63;;;7.30;75.10;;;;;;5075316;28;20426;-79
2023/05/25 04:02:43;;;;;;;0.88;0.88;;;7.30;81.50;;;;;;5073445;28;20437;-80
2023/05/25 04:05:10;;;;;;;1.10;1.00;;;7.30;92.60;;;;;;5047269;28;20794;-81
2023/05/25 04:07:37;;;;;;;1.73;1.60;;;7.40;96.80;;;;;;5072061;28;20473;-80
2023/05/25 04:10:04;;;;;;;0.30;0.30;;;7.40;99.90;;;;;;5072479;28;20426;-80
2023/05/25 04:12:32;;;;;;;0.60;0.60;;;7.50;99.90;;;;;;5077110;28;20435;-80
2023/05/25 04:14:59;;;;;;;8.40;0.93;;;7.50;99.90;;;;;;5058119;28;20437;-79
2023/05/25 04:17:26;;;;;;;0.60;0.60;;;7.50;99.90;;;;;;5076431;28;20644;-80
2023/05/25 04:19:52;;;;;;;0.80;0.80;;;7.60;99.90;;;;;;5058346;28;20839;-80
2023/05/25 04:22:19;;;;;;;1.10;0.88;;;7.60;99.90;;;;;;5100455;28;20777;-80
2023/05/25 04:24:47;;;;;;;0.73;0.73;;;7.70;99.90;;;;;;5075428;28;20427;-80
2023/05/25 04:27:14;;;;;;;1.90;1.30;;;7.80;99.60;;;;;;5069399;28;20934;-79
2023/05/25 04:29:41;;;;;;;2.30;1.27;;;7.80;95.10;;;;;;5086906;28;20928;-77
2023/05/25 04:32:08;;;;;;;0.95;0.95;;;7.90;90.80;;;;;;5065415;28;20603;-72
2023/05/25 04:34:35;;;;;;;3.10;0.90;;;8.00;76.40;;;;;;5065971;28;20510;-72
2023/05/25 04:37:04;;;;;;;0.75;0.75;;;8.10;66.70;;;;;;5073012;28;20521;-71
2023/05/25 04:39:31;;;;;;;5.70;0.95;;;8.40;61.00;;;;;;5074391;28;20452;-72
2023/05/25 04:42:03;;;;;;;0.70;0.70;;;9.00;45.20;;;;;;5071949;28;20528;-72
2023/05/25 04:44:30;;;;;;;0.80;0.80;;;9.50;1.00;;;;;;5060971;28;20915;-72
2023/05/25 04:47:00;;;;;;;0.80;0.80;;;10.20;1.00;;;;;;5062329;28;20515;-72
2023/05/25 04:49:27;;;;;;;3.50;1.83;;;10.80;1.00;;;;;;5060028;28;20435;-72
2023/05/25 04:51:54;;;;;;;1.20;1.10;;;11.40;1.00;;;;;;5064784;28;20855;-70
2023/05/25 04:54:21;;;;;;;0.52;0.52;;;11.90;1.00;;;;;;5069621;28;20953;-71
2023/05/25 04:56:48;;;;;;;0.55;0.55;;;12.40;99.90;;;;;;5066888;28;20463;-71
2023/05/25 04:59:15;;;;;;;0.75;0.75;;;12.60;99.90;;;;;;5070083;28;20436;-71
2023/05/25 05:01:43;;;;;;;2.00;1.10;;;12.90;1.00;;;;;;5067555;28;20511;-71
2023/05/25 05:04:10;;;;;;;0.50;0.50;;;13.20;1.00;;;;;;5068504;28;20431;-71
2023/05/25 05:06:37;;;;;;;1.10;1.00;;;13.70;1.00;;;;;;5069257;28;20430;-71
2023/05/25 05:09:04;;;;;;;1.60;0.60;;;13.90;99.90;;;;;;5056146;28;21095;-71
2023/05/25 05:11:31;;;;;;;0.75;0.75;;;14.00;99.90;;;;;;5063688;28;20439;-71
2023/05/25 05:13:58;;;;;;;5.80;0.90;;;14.20;99.90;;;;;;5056662;28;20788;-71
2023/05/25 05:16:25;;;;;;;1.30;1.20;;;14.20;99.90;;;;;;5079044;28;20433;-72
2023/05/25 05:18:51;;;;;;;0.60;0.60;;;14.50;99.90;;;;;;5064958;28;20433;-71
2023/05/25 05:21:18;;;;;;;0.82;0.80;;;14.70;99.90;;;;;;5067395;28;20565;-70
2023/05/25 05:23:48;;;;;;;0.75;0.75;;;14.90;99.90;;;;;;5073713;28;20459;-71
2023/05/25 05:26:15;;;;;;;0.80;0.70;;;15.00;99.90;;;;;;5060161;28;20446;-72
2023/05/25 05:28:41;;;;;;;0.93;0.93;;;15.00;99.90;;;;;;5085677;28;20520;-71
2023/05/25 05:31:11;;;;;;;0.80;0.60;;;15.30;99.90;;;;;;5064688;28;20438;-72
2023/05/25 05:33:38;;;;;;;1.55;1.45;;;15.50;99.90;;;;;;5070326;28;20449;-72
2023/05/25 05:36:05;;;;;;;1.65;1.15;;;15.60;99.90;;;;;;5065801;28;20526;-71
2023/05/25 05:38:32;;;;;;;3.35;0.93;;;15.80;99.90;;;;;;5076754;28;20435;-73
2023/05/25 05:41:00;;;;;;;2.30;0.70;;;16.00;99.90;;;;;;5059905;28;20512;-72
2023/05/25 05:43:26;;;;;;;1.30;1.10;;;16.30;99.90;;;;;;5064058;28;20836;-78
2023/05/25 05:45:53;;;;;;;0.90;0.90;;;16.40;1.00;;;;;;5069488;28;20434;-76
2023/05/25 05:48:20;;;;;;;0.90;0.60;;;16.50;1.00;;;;;;5082384;28;20952;-75
2023/05/25 05:50:47;;;;;;;2.05;1.13;;;16.60;99.90;;;;;;5090798;28;20436;-75
2023/05/25 05:53:14;;;;;;;0.90;0.90;;;16.40;99.90;;;;;;5073963;28;21006;-74
2023/05/25 05:55:41;;;;;;;1.30;0.88;;;16.40;99.90;;;;;;5052846;28;20943;-74
2023/05/25 05:58:08;;;;;;;1.50;0.75;;;16.70;99.90;;;;;;5061620;28;20764;-74
2023/05/25 06:00:35;;;;;;;0.98;0.88;;;16.70;1.00;;;;;;5061213;28;20499;-75
2023/05/25 06:03:02;;;;;;;1.20;0.80;;;17.00;99.90;;;;;;5048811;28;20433;-75
2023/05/25 06:05:29;;;;;;;1.00;0.95;;;17.20;99.90;;;;;;5063001;28;20485;-75
2023/05/25 06:07:55;;;;;;;7.20;1.03;;;17.10;1.00;;;;;;5087867;28;20433;-75
2023/05/25 06:10:22;;;;;;;1.02;0.93;;;17.20;1.00;;;;;;5089803;28;20460;-75
2023/05/25 06:12:49;;;;;;;0.80;0.80;;;17.20;99.90;;;;;;5056213;28;20440;-76
2023/05/25 06:15:16;;;;;;;1.08;0.65;;;17.40;99.90;;;;;;5074196;28;20967;-74
2023/05/25 06:17:43;;;;;;;0.95;0.95;;;17.30;1.00;;;;;;5054162;28;20468;-75
2023/05/25 06:20:10;;;;;;;1.42;0.82;;;17.10;45.20;;;;;;5068986;28;20438;-75
2023/05/25 06:22:37;;;;;;;1.40;0.85;;;17.20;99.90;;;;;;5069573;28;20423;-74
2023/05/25 06:25:09;;;;;;;1.20;0.80;;;17.20;1.00;;;;;;5067387;28;20427;-75
2023/05/25 06:27:36;;;;;;;0.93;0.90;;;17.30;99.90;;;;;;5059126;28;20436;-74
2023/05/25 06:30:06;;;;;;;0.70;0.70;;;17.70;99.90;;;;;;5049082;28;20433;-75
2023/05/25 06:32:36;;;;;;;0.63;0.63;;;17.80;1.00;;;;;;5049988;28;20425;-76
2023/05/25 06:35:03;;;;;;;1.60;0.85;;;18.00;99.90;;;;;;5067729;28;20640;-76
2023/05/25 06:37:36;;;;;;;9.60;1.30;;;18.20;1.00;;;;;;5054495;28;20451;-75
2023/05/25 06:40:12;;;;;;;2.20;0.80;;;18.40;99.90;;;;;;5059691;28;20520;-76
2023/05/25 06:42:39;;;;;;;0.68;0.68;;;18.90;1.00;;;;;;5072636;28;20427;-76
2023/05/25 06:45:07;;;;;;;1.10;1.05;;;19.10;2.50;;;;;;5064202;28;20427;-75
2023/05/25 06:47:34;;;;;;;1.40;0.80;;;19.30;1.00;;;;;;5048941;28;20436;-75
2023/05/25 06:50:00;;;;;;;0.90;0.90;;;19.10;1.00;;;;;;5070890;28;20427;-76
2023/05/25 06:52:30;;;;;;;1.17;1.17;;;19.00;99.90;;;;;;5068769;28;20438;-76
2023/05/25 06:54:57;;;;;;;1.20;0.82;;;19.30;54.80;;;;;;5067167;28;20455;-76
2023/05/25 06:57:24;;;;;;;0.98;0.90;;;19.30;1.00;;;;;;5067457;28;20854;-76
2023/05/25 06:59:51;;;;;;;1.65;1.02;;;18.90;1.00;;;;;;5076256;28;20898;-75
2023/05/25 07:02:19;;;;;;;1.75;1.23;;;18.70;99.90;;;;;;5050285;28;20884;-75
2023/05/25 07:04:46;;;;;;;0.75;0.75;;;18.40;99.90;;;;;;5060013;28;20956;-75
2023/05/25 07:07:13;;;;;;;2.70;0.85;;;18.10;99.90;;;;;;5065195;28;20433;-76
2023/05/25 07:09:40;;;;;;;1.40;0.73;;;18.00;67.60;;;;;;5079501;28;20489;-76
2023/05/25 07:12:08;;;;;;;3.10;0.80;;;18.50;27.00;;;;;;5065009;28;20423;-75
2023/05/25 07:14:37;;;;;;;3.13;0.77;;;18.90;99.90;;;;;;5069781;28;20479;-75
2023/05/25 07:17:05;;;;;;;1.02;1.00;;;18.90;1.00;;;;;;5071301;28;21137;-76
2023/05/25 07:19:35;;;;;;;0.60;0.60;;;19.10;1.00;;;;;;5074635;28;20797;-75
2023/05/25 07:22:05;;;;;;;2.03;0.95;;;19.40;1.00;;;;;;5076573;28;20431;-75
2023/05/25 07:24:32;;;;;;;1.30;1.20;;;19.70;1.00;;;;;;5066975;28;20919;-75
2023/05/25 07:26:58;;;;;;;0.90;0.90;;;20.10;99.90;;;;;;5067684;28;20980;-75
2023/05/25 07:29:28;;;;;;;1.60;0.90;;;20.50;1.00;;;;;;5073818;28;20511;-76
2023/05/25 07:31:55;;;;;;;3.58;1.17;;;20.70;99.90;;;;;;5069849;28;20540;-76
2023/05/25 07:34:25;;;;;;;0.70;0.70;;;20.80;1.00;;;;;;5070427;28;20431;-76
2023/05/25 07:36:53;;;;;;;1.15;1.15;;;20.80;1.00;;;;;;5067319;28;20423;-76
2023/05/25 07:39:20;;;;;;;0.80;0.80;;;20.90;1.00;;;;;;5055657;28;20488;-76
2023/05/25 07:41:47;;;;;;;0.30;0.30;;;20.50;99.90;;;;;;5067893;28;20453;-76
2023/05/25 07:44:13;;;;;;;0.70;0.70;;;20.50;1.00;;;;;;5064008;28;20428;-75
2023/05/25 07:46:41;;;;;;;1.10;1.00;;;20.60;99.90;;;;;;5067781;28;20469;-75
2023/05/25 07:49:17;;;;;;;1.48;0.90;;;20.50;1.00;;;;;;5047825;28;20898;-76
2023/05/25 07:51:44;;;;;;;1.58;1.00;;;20.50;1.00;;;;;;5047840;28;20508;-76
2023/05/25 07:54:11;;;;;;;1.00;0.70;;;20.60;99.90;;;;;;5046953;28;20434;-76
2023/05/25 07:56:38;;;;;;;0.60;0.60;;;20.70;1.00;;;;;;5047458;28;20425;-75
2023/05/25 07:59:05;;;;;;;0.88;0.70;;;20.60;1.00;;;;;;5048835;28;20433;-76
2023/05/25 08:01:32;;;;;;;1.58;0.80;;;20.60;1.00;;;;;;5048816;28;20978;-75
2023/05/25 08:04:00;;;;;;;0.70;0.70;;;20.50;1.00;;;;;;5046241;28;20456;-76
2023/05/25 08:06:27;;;;;;;0.60;0.60;;;20.70;1.00;;;;;;5048021;28;20429;-76
2023/05/25 08:08:54;;;;;;;0.70;0.70;;;21.10;99.90;;;;;;5048296;28;20539;-75
2023/05/25 08:11:25;;;;;;;2.70;0.80;;;21.30;97.40;;;;;;5047197;28;20449;-76
2023/05/25 08:13:52;;;;;;;2.47;0.70;;;20.30;1.00;;;;;;5048458;28;20431;-75
2023/05/25 08:16:23;;;;;;;0.90;0.70;;;20.60;60.10;;;;;;5067526;28;20430;-76
2023/05/25 08:18:50;;;;;;;1.13;0.77;;;20.80;99.90;;;;;;5084486;28;20993;-75
2023/05/25 08:21:17;;;;;;;0.57;0.57;;;20.50;1.00;;;;;;5083512;28;20474;-75
2023/05/25 08:23:44;;;;;;;2.80;0.93;;;20.50;1.00;;;;;;5067557;28;20501;-75
2023/05/25 08:26:11;;;;;;;5.47;0.50;;;20.10;1.00;;;;;;5065210;28;20508;-75
2023/05/25 08:28:57;;;;;;;1.13;0.60;;;20.40;1.00;;;;;;5047349;28;20779;-75
2023/05/25 08:31:24;;;;;;;0.50;0.50;;;20.50;1.00;;;;;;5047228;28;20868;-75
2023/05/25 08:33:51;;;;;;;3.15;0.85;;;20.90;1.00;;;;;;5047381;28;20869;-75
2023/05/25 08:36:18;;;;;;;0.60;0.60;;;20.90;1.00;;;;;;5059887;28;20517;-75
2023/05/25 08:38:45;;;;;;;1.30;1.00;;;21.30;1.00;;;;;;5083459;28;20529;-75
2023/05/25 08:41:15;;;;;;;0.53;0.53;;;20.50;99.90;;;;;;5067408;28;20457;-75
2023/05/25 08:43:42;;;;;;;1.50;0.77;;;20.50;1.00;;;;;;5067276;28;20529;-76
2023/05/25 08:46:09;;;;;;;0.75;0.55;;;20.70;99.90;;;;;;5067459;28;20480;-75
2023/05/25 08:48:37;;;;;;;1.40;1.20;;;20.50;99.90;;;;;;5058806;28;20463;-76
2023/05/25 08:51:10;;;;;;;2.78;1.00;;;20.60;51.20;;;;;;5047406;28;20761;-75
2023/05/25 08:53:39;;;;;;;1.10;0.50;;;20.40;1.00;;;;;;5046895;28;20854;-76
2023/05/25 08:56:18;;;;;;;0.40;0.40;;;20.90;99.90;;;;;;5049137;28;20912;-74
2023/05/25 08:59:16;;;;;;;1.73;0.93;;;21.20;99.90;;;;;;5051309;28;20413;-75
2023/05/25 09:01:52;;;;;;;1.38;1.27;;;21.70;99.90;;;;;;5050893;28;20588;-74
2023/05/25 09:04:21;;;;;;;0.60;0.60;;;21.60;99.90;;;;;;5056672;28;20919;-75
2023/05/25 09:06:48;;;;;;;2.00;1.00;;;21.40;99.90;;;;;;5066500;28;20460;-75
2023/05/25 09:09:36;;;;;;;1.80;1.00;;;21.60;1.00;;;;;;5067684;28;20429;-75
2023/05/25 09:12:05;;;;;;;0.50;0.50;;;21.70;99.90;;;;;;5070562;28;20921;-75
2023/05/25 09:14:36;;;;;;;0.88;0.88;;;21.60;99.90;;;;;;5064978;28;20434;-75
2023/05/25 09:17:03;;;;;;;1.93;0.87;;;21.80;1.00;;;;;;5071004;28;20493;-76
2023/05/25 09:19:30;;;;;;;0.65;0.45;;;21.70;99.90;;;;;;5059151;28;20425;-76
2023/05/25 09:21:59;;;;;;;3.50;0.98;;;21.90;99.90;;;;;;5069115;28;20511;-76
2023/05/25 09:24:42;;;;;;;0.73;0.67;;;22.20;99.90;;;;;;5067217;28;20430;-76
2023/05/25 09:27:11;;;;;;;2.38;0.63;;;22.10;99.90;;;;;;5050914;28;20482;-76
2023/05/25 09:29:40;;;;;;;2.75;1.00;;;22.10;99.90;;;;;;5049427;28;20439;-76
2023/05/25 09:32:07;;;;;;;0.57;0.57;;;21.80;1.00;;;;;;5049557;28;20429;-76
2023/05/25 09:34:34;;;;;;;3.65;0.63;;;21.80;72.60;;;;;;5050153;28;20479;-75
2023/05/25 09:37:15;;;;;;;5.55;1.02;;;21.60;73.00;;;;;;5049869;28;20519;-75
2023/05/25 09:39:51;;;;;;;0.50;0.50;;;21.70;74.10;;;;;;5050299;28;20440;-76
2023/05/25 09:42:18;;;;;;;0.82;0.65;;;22.20;81.80;;;;;;5049292;28;21070;-76
2023/05/25 09:44:45;;;;;;;0.73;0.57;;;22.60;79.90;;;;;;5050036;28;20897;-74
2023/05/25 09:47:12;;;;;;;0.40;0.40;;;22.30;77.20;;;;;;5049714;28;20768;-76
2023/05/25 09:49:40;;;;;;;0.63;0.63;;;22.00;79.20;;;;;;5049894;28;20433;-76
2023/05/25 09:52:08;;;;;;;0.60;0.60;;;22.40;80.30;;;;;;5050223;28;20443;-75
2023/05/25 09:54:37;;;;;;;0.80;0.60;;;22.70;78.80;;;;;;5048689;28;20516;-75
2023/05/25 09:57:05;;;;;;;0.75;0.75;;;22.20;77.10;;;;;;5049707;28;20437;-74
2023/05/25 09:59:31;;;;;;;0.75;0.65;;;22.30;78.10;;;;;;5048677;28;20433;-75
2023/05/25 10:01:59;;;;;;;0.95;0.68;;;22.30;77.90;;;;;;5048230;28;20428;-75
2023/05/25 10:04:26;;;;;;;0.40;0.40;;;22.30;78.80;;;;;;5049670;28;20471;-75
2023/05/25 10:06:57;;;;;;;0.80;0.60;;;22.20;78.20;;;;;;5060720;28;20856;-75
2023/05/25 10:09:25;;;;;;;0.82;0.70;;;22.70;76.80;;;;;;5069731;28;20489;-75
2023/05/25 10:11:54;;;;;;;1.00;0.88;;;22.60;77.40;;;;;;5062058;28;20437;-75
2023/05/25 10:14:26;;;;;;;0.68;0.50;;;22.80;77.70;;;;;;5048832;28;20772;-75
2023/05/25 10:16:58;;;;;;;2.63;1.10;;;22.60;77.30;;;;;;5050098;28;20431;-75
2023/05/25 10:19:35;;;;;;;2.17;0.63;;;22.30;77.20;;;;;;5059104;28;20450;-75
2023/05/25 10:22:06;;;;;;;4.00;0.80;;;22.20;77.10;;;;;;5068538;28;20459;-75
2023/05/25 10:24:37;;;;;;;0.90;0.50;;;22.00;77.00;;;;;;5069635;28;20423;-75
2023/05/25 10:27:09;;;;;;;0.68;0.68;;;22.20;77.50;;;;;;5066545;28;20431;-75
2023/05/25 10:29:58;;;;;;;0.60;0.47;;;22.40;77.80;;;;;;5068195;28;20662;-75
2023/05/25 10:32:27;;;;;;;0.80;0.40;;;22.20;76.60;;;;;;5067754;28;20791;-76
2023/05/25 10:34:56;;;;;;;1.70;0.90;;;22.50;77.00;;;;;;5068457;28;20428;-75
2023/05/25 10:37:26;;;;;;;0.40;0.40;;;22.90;75.90;;;;;;5069347;28;20891;-75
2023/05/25 10:39:55;;;;;;;1.48;0.98;;;22.60;75.80;;;;;;5060501;28;20970;-75
2023/05/25 10:42:22;;;;;;;0.57;0.57;;;22.00;76.50;;;;;;5049160;28;20923;-76
2023/05/25 10:44:49;;;;;;;1.17;0.57;;;22.00;77.00;;;;;;5047429;28;20488;-76
2023/05/25 10:47:16;;;;;;;0.47;0.47;;;21.80;75.90;;;;;;5047597;28;20484;-75
2023/05/25 10:49:59;;;;;;;2.75;0.70;;;21.60;76.70;;;;;;5048221;28;20979;-75
2023/05/25 10:52:28;;;;;;;0.63;0.52;;;21.90;77.50;;;;;;5047295;28;20977;-75
2023/05/25 10:54:56;;;;;;;0.43;0.43;;;22.10;77.10;;;;;;5048169;28;20433;-75
2023/05/25 10:57:24;;;;;;;0.60;0.60;;;22.20;77.60;;;;;;5048898;28;20441;-76
2023/05/25 11:00:05;;;;;;;0.33;0.33;;;22.40;77.20;;;;;;5049095;28;20429;-75
2023/05/25 11:02:54;;;;;;;0.85;0.82;;;22.60;76.10;;;;;;5047566;28;20730;-75
2023/05/25 11:05:30;;;;;;;0.40;0.40;;;23.00;75.90;;;;;;5048352;28;20970;-75
2023/05/25 11:08:07;;;;;;;0.80;0.77;;;23.20;76.70;;;;;;5048931;28;20520;-75
2023/05/25 11:10:52;;;;;;;0.80;0.70;;;23.10;75.40;;;;;;5060529;28;20467;-75
2023/05/25 11:13:38;;;;;;;0.70;0.50;;;22.70;74.80;;;;;;5065206;28;20434;-75
2023/05/25 11:16:17;;;;;;;0.40;0.40;;;22.60;76.60;;;;;;5063821;28;20438;-75
2023/05/25 11:18:58;;;;;;;0.70;0.70;;;22.00;77.00;;;;;;5067639;28;20455;-75
2023/05/25 11:21:25;;;;;;;0.50;0.50;;;22.00;78.20;;;;;;5067063;28;20424;-75
2023/05/25 11:23:53;;;;;;;1.10;0.70;;;22.30;77.20;;;;;;5067544;28;20533;-75
2023/05/25 11:26:21;;;;;;;1.20;0.70;;;22.40;77.90;;;;;;5067188;28;20476;-75
2023/05/25 11:28:50;;;;;;;0.40;0.40;;;22.70;78.20;;;;;;5068319;28;20434;-76
2023/05/25 11:31:35;;;;;;;0.85;0.80;;;23.00;76.10;;;;;;5064500;28;20433;-76
2023/05/25 11:34:10;;;;;;;1.23;0.55;;;22.80;75.30;;;;;;5067846;28;20783;-75
2023/05/25 11:36:38;;;;;;;1.60;0.50;;;22.70;75.90;;;;;;5068127;28;20431;-75
2023/05/25 11:39:05;;;;;;;0.50;0.50;;;22.60;76.00;;;;;;5064628;28;20431;-75
2023/05/25 11:42:03;;;;;;;0.70;0.70;;;22.40;76.50;;;;;;5067581;28;20523;-76
2023/05/25 11:44:35;;;;;;;0.47;0.47;;;22.50;76.60;;;;;;5067657;28;20430;-76
2023/05/25 11:47:12;;;;;;;0.20;0.20;;;22.40;75.60;;;;;;5080117;28;20938;-75
2023/05/25 11:49:44;;;;;;;0.45;0.45;;;22.20;77.00;;;;;;5067418;28;20945;-75
2023/05/25 11:52:13;;;;;;;0.40;0.40;;;22.40;75.60;;;;;;5066381;28;20849;-76
2023/05/25 11:54:41;;;;;;;1.70;0.60;;;22.30;76.20;;;;;;5047877;28;20528;-76
2023/05/25 11:57:16;;;;;;;0.30;0.30;;;22.40;76.80;;;;;;5047728;28;20436;-76
2023/05/25 11:59:55;;;;;;;12.00;0.40;;;22.60;75.80;;;;;;5047980;28;20432;-75
2023/05/25 12:02:23;;;;;;;0.40;0.40;;;22.80;76.50;;;;;;5046795;28;20437;-75
2023/05/25 12:04:55;;;;;;;1.30;1.02;;;22.80;76.90;;;;;;5077940;28;20444;-74
2023/05/25 12:07:24;;;;;;;3.60;0.47;;;23.10;75.80;;;;;;5047738;28;20806;-75
2023/05/25 12:10:02;;;;;;;1.30;0.60;;;23.30;74.80;;;;;;5047354;28;20463;-74
2023/05/25 12:12:43;;;;;;;1.20;0.40;;;23.20;75.20;;;;;;5066002;28;20508;-75
2023/05/25 12:15:15;;;;;;;1.20;0.68;;;23.10;74.80;;;;;;5066951;28;20848;-74
2023/05/25 12:17:46;;;;;;;0.90;0.53;;;22.70;75.70;;;;;;5067291;28;20466;-75
2023/05/25 12:20:15;;;;;;;0.52;0.52;;;22.60;75.40;;;;;;5061327;28;20436;-75
2023/05/25 12:22:43;;;;;;;3.50;0.80;;;22.60;74.30;;;;;;5060541;28;20421;-75
2023/05/25 12:25:11;;;;;;;1.20;0.82;;;23.00;75.70;;;;;;5047275;28;21084;-75
2023/05/25 12:27:39;;;;;;;0.65;0.65;;;23.40;75.90;;;;;;5046988;28;20962;-75
2023/05/25 12:30:08;;;;;;;0.90;0.40;;;23.30;75.90;;;;;;5047950;28;20439;-75
2023/05/25 12:32:51;;;;;;;0.82;0.82;;;23.20;75.20;;;;;;5050866;28;20443;-75
2023/05/25 12:35:18;;;;;;;1.05;0.95;;;23.40;74.90;;;;;;5057201;28;20435;-75
2023/05/25 12:37:45;;;;;;;0.50;0.50;;;23.50;74.20;;;;;;5071809;28;20431;-75
2023/05/25 12:40:17;;;;;;;1.70;0.93;;;23.40;74.20;;;;;;5067013;28;20514;-75
2023/05/25 12:42:44;;;;;;;1.42;0.70;;;23.00;74.00;;;;;;5050533;28;20429;-75
2023/05/25 12:45:11;;;;;;;0.50;0.50;;;22.80;75.20;;;;;;5050106;28;20437;-74
2023/05/25 12:47:37;;;;;;;3.40;1.17;;;22.80;74.50;;;;;;5051681;28;20507;-74
2023/05/25 12:50:12;;;;;;;0.50;0.50;;;22.90;73.60;;;;;;5067335;28;20470;-75
2023/05/25 12:52:45;;;;;;;0.73;0.73;;;22.80;74.60;;;;;;5070164;28;20492;-75
2023/05/25 12:55:20;;;;;;;0.38;0.38;;;22.90;76.50;;;;;;5057757;28;20433;-75
2023/05/25 12:57:51;;;;;;;0.65;0.57;;;23.40;75.70;;;;;;5050346;28;20433;-75
2023/05/25 13:00:22;;;;;;;0.52;0.52;;;23.60;75.60;;;;;;5052610;28;20438;-75
2023/05/25 13:02:50;;;;;;;1.10;0.98;;;23.70;74.30;;;;;;5066308;28;20950;-75
2023/05/25 13:05:25;;;;;;;0.60;0.60;;;23.60;75.10;;;;;;5070420;28;20419;-75